sensor_id;sensor_type;location;lat;lon;timestamp;pressure;altitude;pressure_sealevel;temperature;humidity
38616;BME280;24370;51.986;4.666;2024-01-15T00:02:17;100481.91;;;11.37;44.22
38616;BME280;24370;51.986;4.666;2024-01-15T00:04:43;100477.09;;;12.04;42.92
38616;BME280;24370;51.986;4.666;2024-01-15T00:07:08;100482.44;;;11.08;44.27
38616;BME280;24370;51.986;4.666;2024-01-15T00:09:35;100478.78;;;11.63;44.00
38616;BME280;24370;51.986;4.666;2024-01-15T00:12:01;100475.09;;;11.74;43.29
38616;BME280;24370;51.986;4.666;2024-01-15T00:14:27;100472.84;;;11.99;42.91
38616;BME280;24370;51.986;4.666;2024-01-15T00:16:52;100466.91;;;11.89;43.27
38616;BME280;24370;51.986;4.666;2024-01-15T00:19:20;100467.19;;;11.31;44.06
38616;BME280;24370;51.986;4.666;2024-01-15T00:21:46;100474.09;;;11.35;44.63
38616;BME280;24370;51.986;4.666;2024-01-15T00:24:11;100463.00;;;11.68;43.99
38616;BME280;24370;51.986;4.666;2024-01-15T00:26:37;100453.50;;;11.62;43.75
38616;BME280;24370;51.986;4.666;2024-01-15T00:29:02;100450.94;;;11.14;45.27
38616;BME280;24370;51.986;4.666;2024-01-15T00:31:31;100444.09;;;11.52;44.74
38616;BME280;24370;51.986;4.666;2024-01-15T00:33:56;100443.31;;;11.01;45.72
38616;BME280;24370;51.986;4.666;2024-01-15T00:36:22;100446.38;;;11.24;44.48
38616;BME280;24370;51.986;4.666;2024-01-15T00:38:48;100436.00;;;11.64;43.68
38616;BME280;24370;51.986;4.666;2024-01-15T00:41:14;100432.34;;;11.71;42.83
38616;BME280;24370;51.986;4.666;2024-01-15T00:43:40;100440.19;;;11.29;43.32
38616;BME280;24370;51.986;4.666;2024-01-15T00:46:05;100437.78;;;10.68;43.91
38616;BME280;24370;51.986;4.666;2024-01-15T00:48:31;100425.22;;;10.89;44.12
38616;BME280;24370;51.986;4.666;2024-01-15T00:50:56;100431.34;;;10.90;43.76
38616;BME280;24370;51.986;4.666;2024-01-15T00:53:22;100431.63;;;11.65;42.50
38616;BME280;24370;51.986;4.666;2024-01-15T00:55:50;100434.72;;;11.42;43.15
38616;BME280;24370;51.986;4.666;2024-01-15T00:58:15;100430.19;;;11.05;42.87
38616;BME280;24370;51.986;4.666;2024-01-15T01:00:41;100419.31;;;11.26;43.45
38616;BME280;24370;51.986;4.666;2024-01-15T01:03:07;100428.78;;;10.85;44.03
38616;BME280;24370;51.986;4.666;2024-01-15T01:05:33;100424.22;;;11.43;43.72
38616;BME280;24370;51.986;4.666;2024-01-15T01:07:59;100423.72;;;11.24;43.43
38616;BME280;24370;51.986;4.666;2024-01-15T01:10:24;100431.00;;;9.97;46.26
38616;BME280;24370;51.986;4.666;2024-01-15T01:12:49;100425.72;;;10.02;46.66
38616;BME280;24370;51.986;4.666;2024-01-15T01:15:15;100419.34;;;10.76;43.87
38616;BME280;24370;51.986;4.666;2024-01-15T01:17:40;100420.88;;;10.37;45.26
38616;BME280;24370;51.986;4.666;2024-01-15T01:20:06;100413.28;;;10.19;45.67
38616;BME280;24370;51.986;4.666;2024-01-15T01:22:33;100419.00;;;10.45;44.49
38616;BME280;24370;51.986;4.666;2024-01-15T01:24:59;100421.50;;;10.52;44.20
38616;BME280;24370;51.986;4.666;2024-01-15T01:27:24;100414.03;;;10.81;43.27
38616;BME280;24370;51.986;4.666;2024-01-15T01:29:49;100420.38;;;10.67;44.37
38616;BME280;24370;51.986;4.666;2024-01-15T01:32:15;100414.00;;;10.84;44.01
38616;BME280;24370;51.986;4.666;2024-01-15T01:34:41;100415.13;;;10.11;45.37
38616;BME280;24370;51.986;4.666;2024-01-15T01:37:07;100417.84;;;10.04;46.25
38616;BME280;24370;51.986;4.666;2024-01-15T01:39:33;100412.19;;;10.31;45.83
38616;BME280;24370;51.986;4.666;2024-01-15T01:41:59;100421.84;;;9.65;47.04
38616;BME280;24370;51.986;4.666;2024-01-15T01:44:24;100418.31;;;10.32;46.23
38616;BME280;24370;51.986;4.666;2024-01-15T01:46:49;100421.66;;;10.43;45.92
38616;BME280;24370;51.986;4.666;2024-01-15T01:49:15;100412.16;;;10.38;46.83
38616;BME280;24370;51.986;4.666;2024-01-15T01:51:41;100411.97;;;9.89;47.16
38616;BME280;24370;51.986;4.666;2024-01-15T01:54:07;100406.16;;;10.84;45.37
38616;BME280;24370;51.986;4.666;2024-01-15T01:56:34;100412.56;;;10.64;46.50
38616;BME280;24370;51.986;4.666;2024-01-15T01:59:01;100407.88;;;10.85;45.89
38616;BME280;24370;51.986;4.666;2024-01-15T02:01:31;100417.41;;;9.72;48.68
38616;BME280;24370;51.986;4.666;2024-01-15T02:03:57;100418.44;;;9.60;48.81
38616;BME280;24370;51.986;4.666;2024-01-15T02:06:23;100415.16;;;9.43;48.95
38616;BME280;24370;51.986;4.666;2024-01-15T02:08:50;100403.50;;;9.72;47.94
38616;BME280;24370;51.986;4.666;2024-01-15T02:11:15;100412.44;;;10.16;46.38
38616;BME280;24370;51.986;4.666;2024-01-15T02:13:41;100393.38;;;11.14;44.61
38616;BME280;24370;51.986;4.666;2024-01-15T02:16:06;100398.78;;;9.97;47.40
38616;BME280;24370;51.986;4.666;2024-01-15T02:18:45;100396.84;;;10.11;47.61
38616;BME280;24370;51.986;4.666;2024-01-15T02:21:11;100401.75;;;9.71;48.29
38616;BME280;24370;51.986;4.666;2024-01-15T02:23:38;100397.94;;;10.54;46.47
38616;BME280;24370;51.986;4.666;2024-01-15T02:26:04;100402.78;;;9.60;48.51
38616;BME280;24370;51.986;4.666;2024-01-15T02:28:30;100398.66;;;9.41;48.74
38616;BME280;24370;51.986;4.666;2024-01-15T02:30:57;100387.84;;;9.72;48.41
38616;BME280;24370;51.986;4.666;2024-01-15T02:33:23;100390.75;;;9.48;48.47
38616;BME280;24370;51.986;4.666;2024-01-15T02:35:48;100393.19;;;9.62;48.22
38616;BME280;24370;51.986;4.666;2024-01-15T02:38:15;100385.88;;;10.47;46.64
38616;BME280;24370;51.986;4.666;2024-01-15T02:40:41;100375.94;;;10.67;45.64
38616;BME280;24370;51.986;4.666;2024-01-15T02:43:07;100379.88;;;10.90;44.65
38616;BME280;24370;51.986;4.666;2024-01-15T02:45:32;100381.59;;;10.43;46.30
38616;BME280;24370;51.986;4.666;2024-01-15T02:47:57;100382.63;;;10.82;45.79
38616;BME280;24370;51.986;4.666;2024-01-15T02:50:23;100382.91;;;10.14;46.63
38616;BME280;24370;51.986;4.666;2024-01-15T02:52:48;100388.28;;;10.59;45.40
38616;BME280;24370;51.986;4.666;2024-01-15T02:55:14;100378.94;;;10.46;45.99
38616;BME280;24370;51.986;4.666;2024-01-15T02:57:39;100383.78;;;10.13;45.72
38616;BME280;24370;51.986;4.666;2024-01-15T03:00:05;100384.88;;;9.96;45.87
38616;BME280;24370;51.986;4.666;2024-01-15T03:02:30;100391.50;;;8.82;49.20
38616;BME280;24370;51.986;4.666;2024-01-15T03:04:58;100397.66;;;9.53;47.57
38616;BME280;24370;51.986;4.666;2024-01-15T03:07:24;100385.88;;;9.86;47.13
38616;BME280;24370;51.986;4.666;2024-01-15T03:09:49;100368.41;;;10.49;46.08
38616;BME280;24370;51.986;4.666;2024-01-15T03:12:15;100390.19;;;9.90;47.05
38616;BME280;24370;51.986;4.666;2024-01-15T03:14:40;100383.81;;;10.10;46.40
38616;BME280;24370;51.986;4.666;2024-01-15T03:17:06;100390.00;;;10.02;46.23
38616;BME280;24370;51.986;4.666;2024-01-15T03:19:34;100385.25;;;8.98;48.63
38616;BME280;24370;51.986;4.666;2024-01-15T03:22:00;100385.78;;;9.27;49.17
38616;BME280;24370;51.986;4.666;2024-01-15T03:24:27;100385.84;;;9.22;49.59
38616;BME280;24370;51.986;4.666;2024-01-15T03:26:53;100383.91;;;9.40;49.38
38616;BME280;24370;51.986;4.666;2024-01-15T03:29:18;100380.53;;;9.31;50.78
38616;BME280;24370;51.986;4.666;2024-01-15T03:31:43;100373.47;;;8.59;51.87
38616;BME280;24370;51.986;4.666;2024-01-15T03:34:08;100373.59;;;9.29;50.18
38616;BME280;24370;51.986;4.666;2024-01-15T03:36:34;100368.38;;;9.30;50.96
38616;BME280;24370;51.986;4.666;2024-01-15T03:38:59;100351.75;;;10.01;48.68
38616;BME280;24370;51.986;4.666;2024-01-15T03:41:24;100362.13;;;11.08;46.65
38616;BME280;24370;51.986;4.666;2024-01-15T03:43:50;100374.06;;;10.21;48.64
38616;BME280;24370;51.986;4.666;2024-01-15T03:46:15;100387.22;;;10.13;49.08
38616;BME280;24370;51.986;4.666;2024-01-15T03:48:40;100386.53;;;9.40;50.69
38616;BME280;24370;51.986;4.666;2024-01-15T03:51:06;100383.13;;;8.46;54.08
38616;BME280;24370;51.986;4.666;2024-01-15T03:53:31;100388.66;;;9.02;52.81
38616;BME280;24370;51.986;4.666;2024-01-15T03:55:56;100371.28;;;9.04;51.60
38616;BME280;24370;51.986;4.666;2024-01-15T03:58:22;100372.28;;;9.64;49.97
38616;BME280;24370;51.986;4.666;2024-01-15T04:00:47;100368.84;;;9.59;50.82
38616;BME280;24370;51.986;4.666;2024-01-15T04:03:12;100350.25;;;10.91;47.95
38616;BME280;24370;51.986;4.666;2024-01-15T04:05:38;100354.47;;;10.50;48.56
38616;BME280;24370;51.986;4.666;2024-01-15T04:08:03;100360.22;;;11.16;47.17
38616;BME280;24370;51.986;4.666;2024-01-15T04:10:29;100353.16;;;11.21;46.82
38616;BME280;24370;51.986;4.666;2024-01-15T04:12:54;100346.78;;;10.89;47.13
38616;BME280;24370;51.986;4.666;2024-01-15T04:15:20;100341.59;;;11.31;47.10
38616;BME280;24370;51.986;4.666;2024-01-15T04:17:45;100337.28;;;10.37;49.58
38616;BME280;24370;51.986;4.666;2024-01-15T04:20:11;100345.25;;;10.26;50.16
38616;BME280;24370;51.986;4.666;2024-01-15T04:22:36;100338.66;;;11.03;48.43
38616;BME280;24370;51.986;4.666;2024-01-15T04:25:02;100336.84;;;10.61;49.01
38616;BME280;24370;51.986;4.666;2024-01-15T04:27:27;100347.09;;;10.19;50.46
38616;BME280;24370;51.986;4.666;2024-01-15T04:29:53;100335.34;;;9.92;50.04
38616;BME280;24370;51.986;4.666;2024-01-15T04:32:18;100344.03;;;9.92;51.24
38616;BME280;24370;51.986;4.666;2024-01-15T04:34:44;100340.69;;;9.17;53.35
38616;BME280;24370;51.986;4.666;2024-01-15T04:37:09;100344.91;;;8.42;54.61
38616;BME280;24370;51.986;4.666;2024-01-15T04:39:35;100333.25;;;7.82;72.38
38616;BME280;24370;51.986;4.666;2024-01-15T04:42:00;100332.13;;;8.14;70.98
38616;BME280;24370;51.986;4.666;2024-01-15T04:44:26;100331.31;;;8.12;69.58
38616;BME280;24370;51.986;4.666;2024-01-15T04:46:51;100337.75;;;8.69;65.28
38616;BME280;24370;51.986;4.666;2024-01-15T04:49:16;100332.03;;;8.28;65.44
38616;BME280;24370;51.986;4.666;2024-01-15T04:51:42;100339.91;;;8.20;67.23
38616;BME280;24370;51.986;4.666;2024-01-15T04:54:07;100339.00;;;8.26;66.03
38616;BME280;24370;51.986;4.666;2024-01-15T04:56:33;100345.97;;;8.21;66.94
38616;BME280;24370;51.986;4.666;2024-01-15T04:58:58;100344.81;;;7.24;69.59
38616;BME280;24370;51.986;4.666;2024-01-15T05:01:23;100333.59;;;7.17;70.24
38616;BME280;24370;51.986;4.666;2024-01-15T05:03:49;100325.53;;;7.63;68.00
38616;BME280;24370;51.986;4.666;2024-01-15T05:06:15;100324.19;;;8.29;63.39
38616;BME280;24370;51.986;4.666;2024-01-15T05:08:40;100314.53;;;8.47;63.21
38616;BME280;24370;51.986;4.666;2024-01-15T05:11:06;100307.31;;;8.71;62.92
38616;BME280;24370;51.986;4.666;2024-01-15T05:13:31;100309.59;;;9.02;59.31
38616;BME280;24370;51.986;4.666;2024-01-15T05:15:57;100311.44;;;7.94;64.25
38616;BME280;24370;51.986;4.666;2024-01-15T05:18:22;100303.25;;;8.42;62.24
38616;BME280;24370;51.986;4.666;2024-01-15T05:20:47;100306.41;;;8.78;60.68
38616;BME280;24370;51.986;4.666;2024-01-15T05:23:13;100302.56;;;9.10;58.16
38616;BME280;24370;51.986;4.666;2024-01-15T05:25:38;100306.13;;;9.03;58.58
38616;BME280;24370;51.986;4.666;2024-01-15T05:28:05;100293.50;;;9.96;55.51
38616;BME280;24370;51.986;4.666;2024-01-15T05:30:30;100317.06;;;9.31;56.80
38616;BME280;24370;51.986;4.666;2024-01-15T05:32:55;100320.09;;;8.95;58.66
38616;BME280;24370;51.986;4.666;2024-01-15T05:35:22;100313.06;;;8.10;62.39
38616;BME280;24370;51.986;4.666;2024-01-15T05:37:47;100321.59;;;8.32;61.54
38616;BME280;24370;51.986;4.666;2024-01-15T05:40:13;100325.88;;;8.37;61.58
38616;BME280;24370;51.986;4.666;2024-01-15T05:42:39;100313.44;;;8.70;59.49
38616;BME280;24370;51.986;4.666;2024-01-15T05:45:05;100322.94;;;8.74;59.05
38616;BME280;24370;51.986;4.666;2024-01-15T05:47:31;100310.72;;;8.79;58.81
38616;BME280;24370;51.986;4.666;2024-01-15T05:49:57;100310.31;;;9.13;58.02
38616;BME280;24370;51.986;4.666;2024-01-15T05:52:23;100317.78;;;7.57;64.47
38616;BME280;24370;51.986;4.666;2024-01-15T05:54:49;100320.16;;;7.88;63.62
38616;BME280;24370;51.986;4.666;2024-01-15T05:57:14;100308.72;;;8.14;61.83
38616;BME280;24370;51.986;4.666;2024-01-15T05:59:40;100293.91;;;9.05;57.60
38616;BME280;24370;51.986;4.666;2024-01-15T06:02:05;100285.53;;;9.48;57.15
38616;BME280;24370;51.986;4.666;2024-01-15T06:04:30;100292.50;;;9.46;55.86
38616;BME280;24370;51.986;4.666;2024-01-15T06:06:56;100283.06;;;9.39;57.37
38616;BME280;24370;51.986;4.666;2024-01-15T06:09:21;100282.59;;;9.70;54.83
38616;BME280;24370;51.986;4.666;2024-01-15T06:11:46;100284.03;;;9.31;56.40
38616;BME280;24370;51.986;4.666;2024-01-15T06:14:12;100282.38;;;9.85;55.01
38616;BME280;24370;51.986;4.666;2024-01-15T06:16:37;100275.56;;;9.75;55.14
38616;BME280;24370;51.986;4.666;2024-01-15T06:19:02;100264.59;;;10.09;53.55
38616;BME280;24370;51.986;4.666;2024-01-15T06:21:29;100267.63;;;9.82;54.61
38616;BME280;24370;51.986;4.666;2024-01-15T06:23:54;100285.19;;;9.09;55.89
38616;BME280;24370;51.986;4.666;2024-01-15T06:26:24;100292.63;;;9.40;56.18
38616;BME280;24370;51.986;4.666;2024-01-15T06:28:50;100298.75;;;9.36;57.28
38616;BME280;24370;51.986;4.666;2024-01-15T06:31:15;100303.75;;;9.51;57.14
38616;BME280;24370;51.986;4.666;2024-01-15T06:33:41;100313.97;;;8.99;57.23
38616;BME280;24370;51.986;4.666;2024-01-15T06:36:06;100328.59;;;8.24;61.26
38616;BME280;24370;51.986;4.666;2024-01-15T06:38:32;100332.56;;;7.44;65.51
38616;BME280;24370;51.986;4.666;2024-01-15T06:40:57;100333.50;;;7.33;66.62
38616;BME280;24370;51.986;4.666;2024-01-15T06:43:23;100318.81;;;7.28;65.92
38616;BME280;24370;51.986;4.666;2024-01-15T06:45:48;100293.81;;;6.90;65.56
38616;BME280;24370;51.986;4.666;2024-01-15T06:48:13;100272.53;;;7.80;62.91
38616;BME280;24370;51.986;4.666;2024-01-15T06:50:41;100274.69;;;8.34;60.56
38616;BME280;24370;51.986;4.666;2024-01-15T06:53:07;100289.75;;;8.88;57.95
38616;BME280;24370;51.986;4.666;2024-01-15T06:55:32;100293.66;;;8.50;59.29
38616;BME280;24370;51.986;4.666;2024-01-15T06:57:58;100297.78;;;8.73;58.51
38616;BME280;24370;51.986;4.666;2024-01-15T07:00:23;100299.41;;;8.81;57.39
38616;BME280;24370;51.986;4.666;2024-01-15T07:02:48;100301.69;;;9.08;55.62
38616;BME280;24370;51.986;4.666;2024-01-15T07:05:14;100316.41;;;9.15;56.98
38616;BME280;24370;51.986;4.666;2024-01-15T07:07:40;100320.13;;;8.92;58.91
38616;BME280;24370;51.986;4.666;2024-01-15T07:10:06;100335.28;;;9.32;56.18
38616;BME280;24370;51.986;4.666;2024-01-15T07:12:32;100331.47;;;8.88;55.37
38616;BME280;24370;51.986;4.666;2024-01-15T07:14:57;100330.31;;;9.14;55.86
38616;BME280;24370;51.986;4.666;2024-01-15T07:17:23;100325.81;;;9.25;55.10
38616;BME280;24370;51.986;4.666;2024-01-15T07:19:48;100312.69;;;8.57;59.53
38616;BME280;24370;51.986;4.666;2024-01-15T07:22:14;100305.69;;;8.63;57.94
38616;BME280;24370;51.986;4.666;2024-01-15T07:24:42;100304.28;;;9.11;55.53
38616;BME280;24370;51.986;4.666;2024-01-15T07:27:07;100299.66;;;9.92;51.32
38616;BME280;24370;51.986;4.666;2024-01-15T07:29:34;100301.66;;;9.09;53.64
38616;BME280;24370;51.986;4.666;2024-01-15T07:32:01;100288.47;;;10.37;50.45
38616;BME280;24370;51.986;4.666;2024-01-15T07:34:26;100289.41;;;9.80;52.39
38616;BME280;24370;51.986;4.666;2024-01-15T07:36:52;100282.06;;;10.04;51.27
38616;BME280;24370;51.986;4.666;2024-01-15T07:39:17;100277.69;;;10.57;50.59
38616;BME280;24370;51.986;4.666;2024-01-15T07:41:42;100283.09;;;10.92;48.60
38616;BME280;24370;51.986;4.666;2024-01-15T07:44:08;100289.31;;;10.86;48.85
38616;BME280;24370;51.986;4.666;2024-01-15T07:46:33;100289.13;;;10.97;48.33
38616;BME280;24370;51.986;4.666;2024-01-15T07:48:58;100298.50;;;10.63;48.61
38616;BME280;24370;51.986;4.666;2024-01-15T07:51:24;100296.81;;;10.59;48.96
38616;BME280;24370;51.986;4.666;2024-01-15T07:53:53;100289.69;;;11.11;47.92
38616;BME280;24370;51.986;4.666;2024-01-15T07:56:20;100294.72;;;10.77;48.01
38616;BME280;24370;51.986;4.666;2024-01-15T07:58:46;100299.06;;;11.22;47.67
38616;BME280;24370;51.986;4.666;2024-01-15T08:01:11;100304.28;;;10.78;48.37
38616;BME280;24370;51.986;4.666;2024-01-15T08:03:37;100300.69;;;10.83;47.97
38616;BME280;24370;51.986;4.666;2024-01-15T08:06:03;100297.91;;;10.47;49.72
38616;BME280;24370;51.986;4.666;2024-01-15T08:08:29;100296.22;;;10.90;48.43
38616;BME280;24370;51.986;4.666;2024-01-15T08:10:57;100294.06;;;11.11;47.93
38616;BME280;24370;51.986;4.666;2024-01-15T08:13:22;100297.38;;;10.25;50.22
38616;BME280;24370;51.986;4.666;2024-01-15T08:15:47;100302.81;;;10.13;50.34
38616;BME280;24370;51.986;4.666;2024-01-15T08:18:13;100309.03;;;9.48;53.79
38616;BME280;24370;51.986;4.666;2024-01-15T08:20:39;100310.09;;;8.55;57.32
38616;BME280;24370;51.986;4.666;2024-01-15T08:23:04;100307.63;;;9.22;55.92
38616;BME280;24370;51.986;4.666;2024-01-15T08:25:30;100302.75;;;8.91;55.80
38616;BME280;24370;51.986;4.666;2024-01-15T08:27:56;100298.47;;;9.54;53.92
38616;BME280;24370;51.986;4.666;2024-01-15T08:30:21;100301.34;;;9.37;54.15
38616;BME280;24370;51.986;4.666;2024-01-15T08:32:50;100294.75;;;8.21;58.30
38616;BME280;24370;51.986;4.666;2024-01-15T08:35:15;100298.59;;;9.45;53.72
38616;BME280;24370;51.986;4.666;2024-01-15T08:37:40;100290.31;;;9.15;54.14
38616;BME280;24370;51.986;4.666;2024-01-15T08:40:06;100304.41;;;9.00;54.67
38616;BME280;24370;51.986;4.666;2024-01-15T08:42:31;100298.38;;;8.95;53.29
38616;BME280;24370;51.986;4.666;2024-01-15T08:44:57;100301.97;;;9.53;53.20
38616;BME280;24370;51.986;4.666;2024-01-15T08:47:22;100296.28;;;8.44;54.42
38616;BME280;24370;51.986;4.666;2024-01-15T08:49:47;100303.44;;;9.09;52.55
38616;BME280;24370;51.986;4.666;2024-01-15T08:52:13;100305.44;;;7.90;55.68
38616;BME280;24370;51.986;4.666;2024-01-15T08:54:39;100299.38;;;8.83;54.95
38616;BME280;24370;51.986;4.666;2024-01-15T08:57:04;100312.06;;;8.25;57.34
38616;BME280;24370;51.986;4.666;2024-01-15T08:59:29;100324.09;;;9.24;54.50
38616;BME280;24370;51.986;4.666;2024-01-15T09:01:55;100316.75;;;8.84;54.45
38616;BME280;24370;51.986;4.666;2024-01-15T09:04:23;100323.31;;;9.16;55.51
38616;BME280;24370;51.986;4.666;2024-01-15T09:06:48;100332.06;;;9.12;54.25
38616;BME280;24370;51.986;4.666;2024-01-15T09:09:14;100343.88;;;9.44;52.32
38616;BME280;24370;51.986;4.666;2024-01-15T09:11:40;100365.94;;;8.17;57.22
38616;BME280;24370;51.986;4.666;2024-01-15T09:14:06;100358.34;;;7.88;61.47
38616;BME280;24370;51.986;4.666;2024-01-15T09:16:31;100358.88;;;8.33;60.15
38616;BME280;24370;51.986;4.666;2024-01-15T09:18:57;100350.13;;;8.42;59.37
38616;BME280;24370;51.986;4.666;2024-01-15T09:21:23;100344.88;;;8.51;58.10
38616;BME280;24370;51.986;4.666;2024-01-15T09:23:50;100348.34;;;8.53;57.31
38616;BME280;24370;51.986;4.666;2024-01-15T09:26:15;100346.53;;;8.61;56.50
38616;BME280;24370;51.986;4.666;2024-01-15T09:28:40;100346.50;;;8.64;56.59
38616;BME280;24370;51.986;4.666;2024-01-15T09:31:06;100338.97;;;8.29;58.10
38616;BME280;24370;51.986;4.666;2024-01-15T09:33:31;100332.50;;;8.72;55.52
38616;BME280;24370;51.986;4.666;2024-01-15T09:35:56;100333.09;;;8.97;54.66
38616;BME280;24370;51.986;4.666;2024-01-15T09:38:22;100334.19;;;8.77;54.48
38616;BME280;24370;51.986;4.666;2024-01-15T09:40:49;100335.00;;;9.54;52.74
38616;BME280;24370;51.986;4.666;2024-01-15T09:43:14;100330.22;;;9.20;53.37
38616;BME280;24370;51.986;4.666;2024-01-15T09:45:41;100336.31;;;8.37;54.78
38616;BME280;24370;51.986;4.666;2024-01-15T09:48:07;100328.09;;;8.78;54.92
38616;BME280;24370;51.986;4.666;2024-01-15T09:50:33;100338.41;;;7.85;57.94
38616;BME280;24370;51.986;4.666;2024-01-15T09:52:59;100319.47;;;8.72;55.52
38616;BME280;24370;51.986;4.666;2024-01-15T09:55:25;100318.59;;;8.74;54.70
38616;BME280;24370;51.986;4.666;2024-01-15T09:57:52;100325.81;;;8.46;55.48
38616;BME280;24370;51.986;4.666;2024-01-15T10:00:18;100328.41;;;8.47;56.58
38616;BME280;24370;51.986;4.666;2024-01-15T10:02:44;100324.78;;;9.39;54.77
38616;BME280;24370;51.986;4.666;2024-01-15T10:05:09;100317.03;;;8.56;55.10
38616;BME280;24370;51.986;4.666;2024-01-15T10:07:35;100328.78;;;9.66;50.55
38616;BME280;24370;51.986;4.666;2024-01-15T10:10:01;100336.84;;;8.74;51.46
38616;BME280;24370;51.986;4.666;2024-01-15T10:12:32;100342.47;;;9.16;50.76
38616;BME280;24370;51.986;4.666;2024-01-15T10:14:57;100343.00;;;8.64;53.38
38616;BME280;24370;51.986;4.666;2024-01-15T10:17:24;100347.00;;;8.99;52.67
38616;BME280;24370;51.986;4.666;2024-01-15T10:19:49;100334.22;;;8.76;53.23
38616;BME280;24370;51.986;4.666;2024-01-15T10:22:15;100354.63;;;8.24;55.41
38616;BME280;24370;51.986;4.666;2024-01-15T10:24:41;100340.81;;;9.08;53.51
38616;BME280;24370;51.986;4.666;2024-01-15T10:27:07;100350.41;;;9.06;55.29
38616;BME280;24370;51.986;4.666;2024-01-15T10:29:34;100325.47;;;8.80;55.12
38616;BME280;24370;51.986;4.666;2024-01-15T10:32:00;100345.88;;;9.20;53.46
38616;BME280;24370;51.986;4.666;2024-01-15T10:34:26;100350.09;;;8.43;55.90
38616;BME280;24370;51.986;4.666;2024-01-15T10:36:54;100348.09;;;8.76;54.96
38616;BME280;24370;51.986;4.666;2024-01-15T10:39:23;100350.81;;;9.42;53.25
38616;BME280;24370;51.986;4.666;2024-01-15T10:41:51;100355.56;;;9.10;54.60
38616;BME280;24370;51.986;4.666;2024-01-15T10:44:17;100353.03;;;9.04;54.80
38616;BME280;24370;51.986;4.666;2024-01-15T10:46:44;100353.06;;;8.99;56.03
38616;BME280;24370;51.986;4.666;2024-01-15T10:49:11;100347.78;;;9.07;56.62
38616;BME280;24370;51.986;4.666;2024-01-15T10:51:36;100339.50;;;9.44;55.16
38616;BME280;24370;51.986;4.666;2024-01-15T10:54:03;100358.72;;;9.99;53.17
38616;BME280;24370;51.986;4.666;2024-01-15T10:56:32;100347.94;;;10.21;51.71
38616;BME280;24370;51.986;4.666;2024-01-15T10:58:59;100334.56;;;10.91;50.54
38616;BME280;24370;51.986;4.666;2024-01-15T11:01:25;100338.41;;;10.72;50.21
38616;BME280;24370;51.986;4.666;2024-01-15T11:03:50;100338.91;;;11.75;47.98
38616;BME280;24370;51.986;4.666;2024-01-15T11:06:17;100339.66;;;10.97;49.57
38616;BME280;24370;51.986;4.666;2024-01-15T11:08:53;100347.94;;;9.63;51.69
38616;BME280;24370;51.986;4.666;2024-01-15T11:11:21;100349.56;;;10.28;50.83
38616;BME280;24370;51.986;4.666;2024-01-15T11:13:47;100346.72;;;9.86;50.44
38616;BME280;24370;51.986;4.666;2024-01-15T11:16:15;100346.13;;;9.67;50.29
38616;BME280;24370;51.986;4.666;2024-01-15T11:21:23;100349.94;;;10.60;48.97
38616;BME280;24370;51.986;4.666;2024-01-15T11:24:02;100341.22;;;11.08;48.07
38616;BME280;24370;51.986;4.666;2024-01-15T11:26:33;100344.88;;;11.41;47.12
38616;BME280;24370;51.986;4.666;2024-01-15T11:34:07;100354.94;;;10.19;49.42
38616;BME280;24370;51.986;4.666;2024-01-15T11:42:01;100380.50;;;9.33;52.21
38616;BME280;24370;51.986;4.666;2024-01-15T11:44:31;100387.78;;;9.76;54.30
38616;BME280;24370;51.986;4.666;2024-01-15T11:46:59;100386.88;;;9.79;54.39
38616;BME280;24370;51.986;4.666;2024-01-15T11:51:55;100386.28;;;10.74;51.28
38616;BME280;24370;51.986;4.666;2024-01-15T11:54:23;100390.28;;;10.43;52.75
38616;BME280;24370;51.986;4.666;2024-01-15T11:56:49;100380.53;;;9.28;55.24
38616;BME280;24370;51.986;4.666;2024-01-15T11:59:15;100386.38;;;10.69;52.07
38616;BME280;24370;51.986;4.666;2024-01-15T12:01:41;100389.59;;;10.30;52.17
38616;BME280;24370;51.986;4.666;2024-01-15T12:04:08;100390.41;;;9.75;53.64
38616;BME280;24370;51.986;4.666;2024-01-15T12:06:34;100405.47;;;10.18;51.90
38616;BME280;24370;51.986;4.666;2024-01-15T12:09:07;100415.41;;;9.91;52.72
38616;BME280;24370;51.986;4.666;2024-01-15T12:11:34;100421.91;;;10.23;51.40
38616;BME280;24370;51.986;4.666;2024-01-15T12:14:01;100417.16;;;9.22;53.14
38616;BME280;24370;51.986;4.666;2024-01-15T12:16:27;100431.50;;;8.75;55.32
38616;BME280;24370;51.986;4.666;2024-01-15T12:18:52;100427.94;;;8.87;55.88
38616;BME280;24370;51.986;4.666;2024-01-15T12:21:17;100422.91;;;9.52;52.46
38616;BME280;24370;51.986;4.666;2024-01-15T12:23:46;100422.28;;;10.56;51.49
38616;BME280;24370;51.986;4.666;2024-01-15T12:26:13;100423.09;;;10.61;50.87
38616;BME280;24370;51.986;4.666;2024-01-15T12:28:39;100418.56;;;11.63;47.66
38616;BME280;24370;51.986;4.666;2024-01-15T12:31:05;100418.72;;;10.63;49.67
38616;BME280;24370;51.986;4.666;2024-01-15T12:33:30;100420.78;;;11.40;48.21
38616;BME280;24370;51.986;4.666;2024-01-15T12:35:56;100418.03;;;11.88;47.39
38616;BME280;24370;51.986;4.666;2024-01-15T12:38:21;100424.19;;;10.99;47.85
38616;BME280;24370;51.986;4.666;2024-01-15T12:40:47;100420.97;;;11.30;47.49
38616;BME280;24370;51.986;4.666;2024-01-15T12:43:13;100423.66;;;10.23;49.90
38616;BME280;24370;51.986;4.666;2024-01-15T12:45:38;100420.47;;;11.55;47.94
38616;BME280;24370;51.986;4.666;2024-01-15T12:48:04;100429.56;;;10.39;49.72
38616;BME280;24370;51.986;4.666;2024-01-15T12:50:29;100435.72;;;10.88;48.33
38616;BME280;24370;51.986;4.666;2024-01-15T12:52:55;100435.69;;;10.36;49.41
38616;BME280;24370;51.986;4.666;2024-01-15T12:55:21;100439.38;;;10.79;48.89
38616;BME280;24370;51.986;4.666;2024-01-15T12:57:46;100438.66;;;10.69;48.47
38616;BME280;24370;51.986;4.666;2024-01-15T13:00:12;100433.72;;;11.02;48.33
38616;BME280;24370;51.986;4.666;2024-01-15T13:02:41;100425.13;;;10.95;47.96
38616;BME280;24370;51.986;4.666;2024-01-15T13:05:08;100432.19;;;10.37;49.41